This is the latest recevied weather packets stored in our database for station/object CE4RG-12. If no packets are shown the sender has not sent any weather packets the latest 10 day(s).
| Time | Temp. | Humidity | Pressure | Rain* | Wind** | Luminosity | Snow |
|---|---|---|---|---|---|---|---|
| 1777956961 | 20° C | 44% | 957.2 hPa | - | - | - | - |
| 1777956360 | 20° C | 44% | 957.1 hPa | - | - | - | - |
| 1777955760 | 20° C | 44% | 957.1 hPa | - | - | - | - |
| 1777955160 | 20° C | 43% | 957.3 hPa | - | - | - | - |
| 1777954560 | 20° C | 43% | 957.3 hPa | - | - | - | - |
| 1777953960 | 20° C | 43% | 957.3 hPa | - | - | - | - |
| 1777943152 | 20.56° C | 42% | 957 hPa | - | - | - | - |
| 1777941348 | 21.11° C | 42% | 957 hPa | - | - | - | - |
| 1777940748 | 21.11° C | 42% | 957.1 hPa | - | - | - | - |
| 1777940148 | 21.11° C | 42% | 957 hPa | - | - | - | - |
| 1777934747 | 21.67° C | 41% | 956.6 hPa | - | - | - | - |
| 1777934147 | 21.67° C | 42% | 956.6 hPa | - | - | - | - |
| 1777931151 | 21.11° C | 42% | 956.7 hPa | - | - | - | - |
| 1777929345 | 21.11° C | 41% | 956.7 hPa | - | - | - | - |
| 1777928745 | 21.11° C | 42% | 956.7 hPa | - | - | - | - |
| 1777925744 | 21.11° C | 42% | 957.1 hPa | - | - | - | - |
| 1777914342 | 20.56° C | 43% | 958.5 hPa | - | - | - | - |
| 1777910742 | 20.56° C | 43% | 958.8 hPa | - | - | - | - |
| 1777910142 | 20.56° C | 43% | 958.8 hPa | - | - | - | - |
| 1777905341 | 20.56° C | 43% | 958.9 hPa | - | - | - | - |
| 1777904741 | 20.56° C | 43% | 958.8 hPa | - | - | - | - |
| 1777901140 | 20.56° C | 43% | 958.5 hPa | - | - | - | - |
| 1777900540 | 20.56° C | 43% | 958.7 hPa | - | - | - | - |
| 1777899940 | 20.56° C | 43% | 958.7 hPa | - | - | - | - |
| 1777898740 | 20.56° C | 43% | 958.6 hPa | - | - | - | - |
* Rain since midnight (hover to see other rain measurements)
** Current wind speed in m/s (hover to see current wind gust speed)